Time;durP1;ratioP1;P1;durP2;ratioP2;P2;SDS_P1;SDS_P2;PMS_P1;PMS_P2;Temp;Humidity;BMP_temperature;BMP_pressure;BME280_temperature;BME280_humidity;BME280_pressure;Samples;Min_cycle;Max_cycle;Signal;HPM_P1;HPM_P2
2021/11/22 00:02:04;;;;;;;24.00;16.17;;;;;;;;;;21246594;27;20051;-56
2021/11/22 00:12:06;;;;;;;23.83;15.70;;;;;;;;;;21246467;27;20043;-56
2021/11/22 00:22:09;;;;;;;21.20;15.60;;;;;;;;;;21246210;27;20055;-59
2021/11/22 00:32:11;;;;;;;23.30;17.25;;;;;;;;;;21244675;27;20054;-57
2021/11/22 00:42:16;;;;;;;24.63;17.25;;;;;;;;;;21227109;27;20047;-60
2021/11/22 00:52:18;;;;;;;;;;;;;;;;;;21256323;27;20588;-60
2021/11/22 01:02:22;;;;;;;20.45;16.67;;;;;;;;;;21259153;27;19919;-56
2021/11/22 01:12:28;;;;;;;23.83;16.10;;;;;;;;;;21258245;27;20043;-56
2021/11/22 01:22:29;;;;;;;;;;;;;;;;;;21257955;27;20058;-57
2021/11/22 01:32:31;;;;;;;25.38;16.80;;;;;;;;;;21256075;27;19955;-57
2021/11/22 01:42:37;;;;;;;36.65;18.67;;;;;;;;;;21255672;27;20047;-57
2021/11/22 01:52:40;;;;;;;60.38;19.27;;;;;;;;;;21254719;27;20085;-55
2021/11/22 02:02:42;;;;;;;45.47;20.40;;;;;;;;;;21253726;27;20081;-60
2021/11/22 02:12:45;;;;;;;26.05;18.55;;;;;;;;;;21253355;27;20047;-59
2021/11/22 02:22:54;;;;;;;42.47;17.88;;;;;;;;;;21252735;27;20051;-55
2021/11/22 02:32:58;;;;;;;74.90;19.30;;;;;;;;;;21251901;27;20403;-56
2021/11/22 02:43:06;;;;;;;40.95;19.00;;;;;;;;;;21251043;27;20047;-56
2021/11/22 02:53:28;;;;;;;34.08;19.02;;;;;;;;;;21250163;27;20043;-56
2021/11/22 03:03:43;;;;;;;35.17;17.87;;;;;;;;;;21249407;27;20051;-58
2021/11/22 03:14:05;;;;;;;39.58;15.98;;;;;;;;;;21247881;27;20050;-56
2021/11/22 03:24:21;;;;;;;25.80;16.25;;;;;;;;;;21231336;27;20053;-56
2021/11/22 03:34:28;;;;;;;23.33;14.98;;;;;;;;;;21246862;27;20082;-56
2021/11/22 03:44:36;;;;;;;22.10;13.60;;;;;;;;;;21247359;27;20047;-55
2021/11/22 03:54:45;;;;;;;23.42;15.70;;;;;;;;;;21246784;27;20054;-56
2021/11/22 04:04:54;;;;;;;22.92;15.20;;;;;;;;;;21246341;27;20134;-56
2021/11/22 04:15:03;;;;;;;22.90;15.43;;;;;;;;;;21246381;27;20093;-56
2021/11/22 04:25:22;;;;;;;22.98;15.65;;;;;;;;;;21240500;27;20096;-57
2021/11/22 04:35:43;;;;;;;24.75;17.60;;;;;;;;;;21261510;27;20051;-55
2021/11/22 04:46:05;;;;;;;26.63;18.60;;;;;;;;;;21262230;27;20462;-56
2021/11/22 04:56:21;;;;;;;26.75;18.92;;;;;;;;;;21261332;27;20085;-56
2021/11/22 05:06:42;;;;;;;29.80;20.42;;;;;;;;;;21260290;27;20499;-60
2021/11/22 05:16:53;;;;;;;39.58;23.48;;;;;;;;;;21258715;27;20051;-56
2021/11/22 05:27:03;;;;;;;34.03;19.88;;;;;;;;;;21257835;27;20051;-59
2021/11/22 05:37:08;;;;;;;30.08;19.08;;;;;;;;;;21255985;27;20051;-56
2021/11/22 05:47:14;;;;;;;25.38;17.00;;;;;;;;;;21257270;27;20088;-55
2021/11/22 05:57:19;;;;;;;38.58;22.65;;;;;;;;;;21255762;27;20134;-56
2021/11/22 06:07:23;;;;;;;37.83;23.92;;;;;;;;;;21255517;27;20050;-56
2021/11/22 06:17:26;;;;;;;35.05;22.02;;;;;;;;;;21253229;27;20096;-56
2021/11/22 06:27:31;;;;;;;35.90;22.80;;;;;;;;;;21252201;27;20043;-57
2021/11/22 06:37:35;;;;;;;33.92;21.98;;;;;;;;;;21252905;27;20499;-57
2021/11/22 06:47:38;;;;;;;33.55;22.27;;;;;;;;;;21249496;27;20415;-56
2021/11/22 06:57:40;;;;;;;35.83;23.00;;;;;;;;;;21231539;27;20074;-56
2021/11/22 07:07:44;;;;;;;32.30;22.42;;;;;;;;;;21249769;27;20091;-55
2021/11/22 07:17:47;;;;;;;33.10;20.05;;;;;;;;;;21249525;27;20112;-57
2021/11/22 07:27:51;;;;;;;28.92;17.80;;;;;;;;;;21229238;27;20081;-58
2021/11/22 07:37:54;;;;;;;28.67;18.63;;;;;;;;;;21248789;27;20050;-58
2021/11/22 07:47:58;;;;;;;30.67;18.90;;;;;;;;;;21247650;27;20108;-60
2021/11/22 07:58:01;;;;;;;27.63;16.33;;;;;;;;;;21254968;27;20054;-59
2021/11/22 08:08:05;;;;;;;24.08;16.80;;;;;;;;;;21264427;27;20065;-61
2021/11/22 08:18:09;;;;;;;29.85;17.77;;;;;;;;;;21263354;27;20526;-60
2021/11/22 08:28:12;;;;;;;29.85;19.55;;;;;;;;;;21261831;27;20044;-59
2021/11/22 08:38:16;;;;;;;33.67;19.00;;;;;;;;;;21262456;27;20488;-60
2021/11/22 08:48:20;;;;;;;28.08;16.92;;;;;;;;;;21261116;27;20415;-59
2021/11/22 08:58:23;;;;;;;29.35;16.25;;;;;;;;;;21259577;27;20047;-61
2021/11/22 09:08:27;;;;;;;27.88;17.33;;;;;;;;;;21258210;27;20043;-58
2021/11/22 09:18:32;;;;;;;30.52;17.10;;;;;;;;;;21257948;27;20050;-56
2021/11/22 09:28:35;;;;;;;30.77;18.63;;;;;;;;;;21257853;27;20116;-56
2021/11/22 09:38:38;;;;;;;34.08;17.58;;;;;;;;;;21238274;27;20051;-57
2021/11/22 09:48:42;;;;;;;23.17;15.35;;;;;;;;;;21255529;27;20126;-56
2021/11/22 09:58:45;;;;;;;27.50;17.10;;;;;;;;;;21255444;27;20079;-56
2021/11/22 10:08:47;;;;;;;31.40;17.38;;;;;;;;;;21254213;27;20047;-56
2021/11/22 10:19:00;;;;;;;28.10;17.50;;;;;;;;;;21253055;27;20059;-56
2021/11/22 10:29:04;;;;;;;23.80;14.95;;;;;;;;;;21253906;27;20047;-58
2021/11/22 10:39:07;;;;;;;26.65;15.75;;;;;;;;;;21251514;27;20054;-57
2021/11/22 10:49:14;;;;;;;18.95;12.85;;;;;;;;;;21250651;27;20043;-56
2021/11/22 10:59:20;;;;;;;19.50;11.02;;;;;;;;;;21248707;27;20051;-49
2021/11/22 11:09:25;;;;;;;19.27;11.10;;;;;;;;;;21249327;27;20047;-55
2021/11/22 11:19:29;;;;;;;17.02;10.30;;;;;;;;;;21167340;27;20476;-59
2021/11/22 11:29:32;;;;;;;11.45;8.85;;;;;;;;;;21161994;28;20109;-57
2021/11/22 11:39:53;;;;;;;23.60;11.52;;;;;;;;;;21162021;28;20051;-53
2021/11/22 11:49:56;;;;;;;13.02;9.43;;;;;;;;;;21161933;28;20051;-61
2021/11/22 12:00:00;;;;;;;19.88;11.13;;;;;;;;;;21161580;28;20058;-61
2021/11/22 12:10:06;;;;;;;12.80;10.37;;;;;;;;;;21162164;28;20122;-60
2021/11/22 12:20:08;;;;;;;12.60;8.57;;;;;;;;;;21161516;28;20043;-69
2021/11/22 12:30:30;;;;;;;12.50;9.75;;;;;;;;;;21142169;28;20052;-62
2021/11/22 12:40:43;;;;;;;10.85;6.10;;;;;;;;;;21162011;28;20059;-59
2021/11/22 12:50:58;;;;;;;8.48;3.92;;;;;;;;;;21176053;28;20039;-57
2021/11/22 13:01:02;;;;;;;6.43;3.45;;;;;;;;;;21203748;27;20521;-58
2021/11/22 13:11:11;;;;;;;53.55;40.28;;;;;;;;;;21259138;27;20456;-56
2021/11/22 13:21:20;;;;;;;10.07;6.25;;;;;;;;;;21258761;27;20105;-56
2021/11/22 13:31:27;;;;;;;7.75;5.63;;;;;;;;;;21238479;27;20054;-57
2021/11/22 13:41:31;;;;;;;9.13;6.47;;;;;;;;;;21238953;27;20083;-56
2021/11/22 13:51:40;;;;;;;7.75;5.90;;;;;;;;;;21255461;27;20050;-58
2021/11/22 14:01:45;;;;;;;8.63;6.30;;;;;;;;;;21255657;27;20047;-58
2021/11/22 14:11:53;;;;;;;8.98;4.78;;;;;;;;;;21256010;27;20047;-58
2021/11/22 14:22:10;;;;;;;9.00;4.68;;;;;;;;;;21254158;27;20466;-57
2021/11/22 14:32:12;;;;;;;8.63;6.72;;;;;;;;;;21252188;27;20051;-57
2021/11/22 14:42:16;;;;;;;11.60;5.95;;;;;;;;;;21251749;27;20475;-56
2021/11/22 14:52:21;;;;;;;;;;;;;;;;;;21251420;27;20484;-57
2021/11/22 15:02:26;;;;;;;8.77;4.43;;;;;;;;;;21250582;27;20295;-57
2021/11/22 15:12:31;;;;;;;9.18;5.13;;;;;;;;;;21248784;27;20087;-56
2021/11/22 15:22:37;;;;;;;14.23;6.47;;;;;;;;;;21248698;27;20564;-57
2021/11/22 15:32:41;;;;;;;5.95;4.80;;;;;;;;;;21248216;27;20047;-57
2021/11/22 15:42:44;;;;;;;5.20;3.75;;;;;;;;;;21247584;27;20118;-58
2021/11/22 15:52:48;;;;;;;8.00;2.75;;;;;;;;;;21247288;27;20733;-60
2021/11/22 16:02:51;;;;;;;9.82;3.30;;;;;;;;;;21246522;28;20066;-53
2021/11/22 16:12:56;;;;;;;5.65;2.30;;;;;;;;;;21246623;28;20043;-56
2021/11/22 16:22:59;;;;;;;7.18;2.20;;;;;;;;;;21259277;27;20055;-54
2021/11/22 16:33:05;;;;;;;4.03;1.92;;;;;;;;;;21262536;27;20061;-56
2021/11/22 16:43:07;;;;;;;7.18;1.88;;;;;;;;;;21262771;27;20124;-56
2021/11/22 16:53:09;;;;;;;3.25;1.48;;;;;;;;;;21261102;27;20077;-56
2021/11/22 17:03:13;;;;;;;3.83;1.40;;;;;;;;;;21259205;27;20066;-57
2021/11/22 17:13:15;;;;;;;3.50;1.90;;;;;;;;;;21259002;27;20054;-56
2021/11/22 17:23:18;;;;;;;2.88;1.67;;;;;;;;;;21258404;27;20066;-64
2021/11/22 17:33:20;;;;;;;3.72;2.08;;;;;;;;;;21256093;27;20100;-63
2021/11/22 17:43:25;;;;;;;6.07;2.70;;;;;;;;;;21257687;27;20047;-55
2021/11/22 17:53:27;;;;;;;3.75;2.75;;;;;;;;;;21237139;27;20373;-52
2021/11/22 18:03:29;;;;;;;4.35;2.80;;;;;;;;;;21254536;27;20047;-57
2021/11/22 18:13:31;;;;;;;4.97;3.40;;;;;;;;;;21254723;27;20043;-57
2021/11/22 18:23:34;;;;;;;6.03;3.58;;;;;;;;;;21235138;27;20502;-57
2021/11/22 18:33:36;;;;;;;4.55;2.90;;;;;;;;;;21252687;27;20095;-58
2021/11/22 18:43:39;;;;;;;4.03;2.63;;;;;;;;;;21251090;27;20050;-58
2021/11/22 18:53:41;;;;;;;2.40;1.40;;;;;;;;;;21251225;27;20449;-58
2021/11/22 19:03:43;;;;;;;2.83;1.92;;;;;;;;;;21250091;27;20047;-57
2021/11/22 19:13:45;;;;;;;2.78;1.83;;;;;;;;;;21249263;27;20043;-56
2021/11/22 19:23:48;;;;;;;2.67;2.10;;;;;;;;;;21247775;27;20455;-57
2021/11/22 19:33:51;;;;;;;3.45;1.90;;;;;;;;;;21245977;27;20189;-57
2021/11/22 19:43:53;;;;;;;3.75;2.30;;;;;;;;;;21245591;27;20059;-57
2021/11/22 19:53:56;;;;;;;3.15;2.20;;;;;;;;;;21244224;27;20068;-57
2021/11/22 20:03:57;;;;;;;3.53;2.72;;;;;;;;;;21245204;28;20510;-57
2021/11/22 20:14:03;;;;;;;4.63;2.28;;;;;;;;;;21243613;28;20053;-55
2021/11/22 20:24:06;;;;;;;3.20;2.70;;;;;;;;;;21243749;28;20051;-58
2021/11/22 20:34:09;;;;;;;4.78;3.30;;;;;;;;;;21246112;28;20055;-58
2021/11/22 20:44:12;;;;;;;4.82;4.10;;;;;;;;;;21245892;28;20455;-58
2021/11/22 20:54:15;;;;;;;14.02;9.98;;;;;;;;;;21244690;28;20055;-58
2021/11/22 21:04:17;;;;;;;12.93;10.73;;;;;;;;;;21248319;27;20171;-57
2021/11/22 21:14:20;;;;;;;17.92;12.52;;;;;;;;;;21258958;27;20039;-57
2021/11/22 21:24:23;;;;;;;14.10;9.75;;;;;;;;;;21258254;27;20486;-58
2021/11/22 21:34:30;;;;;;;12.35;9.32;;;;;;;;;;21257515;27;20047;-58
2021/11/22 21:44:35;;;;;;;11.23;10.10;;;;;;;;;;21256736;27;20134;-58
2021/11/22 21:54:37;;;;;;;;;;;;;;;;;;21256361;27;20108;-57
2021/11/22 22:04:39;;;;;;;12.38;10.25;;;;;;;;;;21255523;27;20018;-57
2021/11/22 22:14:42;;;;;;;15.05;12.43;;;;;;;;;;21254843;27;20388;-58
2021/11/22 22:24:44;;;;;;;18.95;14.27;;;;;;;;;;21253932;27;20563;-57
2021/11/22 22:34:46;;;;;;;24.73;17.75;;;;;;;;;;21253650;27;20043;-57
2021/11/22 22:44:50;;;;;;;20.90;16.80;;;;;;;;;;21252046;27;20062;-56
2021/11/22 22:54:53;;;;;;;23.38;17.42;;;;;;;;;;21251236;27;20051;-57
2021/11/22 23:04:56;;;;;;;22.85;17.38;;;;;;;;;;21250691;27;20051;-57
2021/11/22 23:14:58;;;;;;;22.48;17.83;;;;;;;;;;21251325;27;20051;-57
2021/11/22 23:25:00;;;;;;;20.52;15.50;;;;;;;;;;21248968;27;20082;-57
2021/11/22 23:35:02;;;;;;;20.85;15.35;;;;;;;;;;21249055;27;20055;-57
2021/11/22 23:45:05;;;;;;;22.38;16.65;;;;;;;;;;21248947;27;20047;-58
2021/11/22 23:55:08;;;;;;;20.70;15.63;;;;;;;;;;21247784;27;20039;-57
